Time;durP1;ratioP1;P1;durP2;ratioP2;P2;SDS_P1;SDS_P2;PMS_P1;PMS_P2;Temp;Humidity;BMP_temperature;BMP_pressure;BME280_temperature;BME280_humidity;BME280_pressure;Samples;Min_cycle;Max_cycle;Signal;HPM_P1;HPM_P2
2022/06/09 00:02:25;;;;;;;4.03;1.15;;;22.90;51.30;;;;;;5121564;28;20016;-48
2022/06/09 00:04:50;;;;;;;2.97;1.00;;;22.80;51.30;;;;;;5121823;28;20011;-43
2022/06/09 00:07:20;;;;;;;4.47;1.17;;;22.80;51.30;;;;;;5120868;28;20016;-48
2022/06/09 00:09:51;;;;;;;3.55;1.00;;;22.80;51.30;;;;;;5122116;28;20027;-51
2022/06/09 00:12:16;;;;;;;4.18;1.30;;;22.80;51.30;;;;;;5121042;28;20016;-46
2022/06/09 00:14:43;;;;;;;4.30;1.30;;;22.80;51.30;;;;;;5121111;28;20004;-49
2022/06/09 00:17:09;;;;;;;5.38;1.63;;;22.80;51.30;;;;;;5087660;28;20046;-51
2022/06/09 00:19:35;;;;;;;5.38;1.20;;;22.80;51.30;;;;;;5125175;28;20011;-46
2022/06/09 00:22:01;;;;;;;3.60;1.17;;;22.80;51.20;;;;;;5124610;28;20015;-48
2022/06/09 00:24:26;;;;;;;2.80;0.95;;;22.80;51.20;;;;;;5122851;28;20039;-44
2022/06/09 00:26:52;;;;;;;3.58;1.10;;;22.80;51.20;;;;;;5122219;28;20027;-47
2022/06/09 00:29:18;;;;;;;4.85;1.20;;;22.80;51.20;;;;;;5121516;28;20028;-48
2022/06/09 00:31:46;;;;;;;4.20;1.20;;;22.80;51.30;;;;;;5122416;28;20069;-45
2022/06/09 00:34:11;;;;;;;3.35;1.13;;;22.80;51.30;;;;;;5120779;28;20027;-50
2022/06/09 00:36:37;;;;;;;3.95;1.23;;;22.80;51.30;;;;;;5120897;28;20016;-51
2022/06/09 00:39:03;;;;;;;4.40;1.35;;;22.80;51.30;;;;;;5122300;28;20022;-47
2022/06/09 00:41:29;;;;;;;4.43;1.23;;;22.80;51.30;;;;;;5122717;28;20469;-50
2022/06/09 00:44:21;;;;;;;4.70;1.10;;;22.80;51.30;;;;;;5104909;28;20107;-48
2022/06/09 00:46:52;;;;;;;4.90;1.30;;;22.80;51.40;;;;;;5122871;28;20462;-45
2022/06/09 00:49:23;;;;;;;5.95;1.70;;;22.80;51.20;;;;;;5120852;28;20058;-47
2022/06/09 00:51:50;;;;;;;5.15;1.35;;;22.80;51.20;;;;;;5121843;28;20173;-50
2022/06/09 00:54:22;;;;;;;4.32;1.25;;;22.80;51.20;;;;;;5121788;28;20010;-51
2022/06/09 00:57:22;;;;;;;5.20;1.30;;;22.80;51.20;;;;;;5124014;28;20144;-48
2022/06/09 00:59:49;;;;;;;7.30;1.70;;;22.80;51.20;;;;;;5114450;28;20612;-51
2022/06/09 01:02:16;;;;;;;3.80;1.20;;;22.80;51.30;;;;;;5123256;28;20012;-47
2022/06/09 01:04:43;;;;;;;5.40;1.52;;;22.80;51.30;;;;;;5121198;28;20016;-50
2022/06/09 01:07:10;;;;;;;6.25;1.27;;;22.80;51.30;;;;;;5121643;28;20385;-45
2022/06/09 01:09:35;;;;;;;4.25;1.30;;;22.70;51.30;;;;;;5121530;27;20019;-45
2022/06/09 01:12:01;;;;;;;5.03;1.40;;;22.80;51.40;;;;;;5119315;28;20024;-49
2022/06/09 01:14:29;;;;;;;4.90;1.50;;;22.80;51.30;;;;;;5119345;28;20038;-47
2022/06/09 01:17:08;;;;;;;4.78;1.40;;;22.70;51.30;;;;;;5118315;28;20019;-45
2022/06/09 01:19:59;;;;;;;4.40;1.50;;;22.70;51.30;;;;;;5117645;28;20026;-51
2022/06/09 01:22:59;;;;;;;4.93;1.52;;;22.70;51.30;;;;;;5119284;28;20026;-50
2022/06/09 01:25:37;;;;;;;7.05;1.73;;;22.80;51.20;;;;;;5119499;28;20039;-44
2022/06/09 01:28:26;;;;;;;5.43;1.50;;;22.70;51.20;;;;;;5119780;28;20091;-44
2022/06/09 01:30:56;;;;;;;6.20;1.30;;;22.70;51.30;;;;;;5118999;28;20491;-52
2022/06/09 01:33:44;;;;;;;5.05;1.48;;;22.70;51.30;;;;;;5118722;28;20018;-51
2022/06/09 01:36:14;;;;;;;5.85;1.70;;;22.70;51.30;;;;;;5120804;28;20069;-43
2022/06/09 01:38:46;;;;;;;4.43;1.50;;;22.70;51.30;;;;;;5119141;28;20023;-44
2022/06/09 01:41:13;;;;;;;4.68;1.50;;;22.70;51.30;;;;;;5119390;28;20070;-46
2022/06/09 01:43:39;;;;;;;6.13;1.60;;;22.80;51.40;;;;;;5121151;28;20084;-43
2022/06/09 01:46:09;;;;;;;5.53;1.42;;;22.70;51.30;;;;;;5121235;28;20047;-43
2022/06/09 01:48:35;;;;;;;5.93;1.40;;;22.70;51.30;;;;;;5104123;28;20007;-43
2022/06/09 01:51:06;;;;;;;5.97;1.40;;;22.70;51.40;;;;;;5122369;28;20115;-45
2022/06/09 01:53:53;;;;;;;5.75;1.45;;;22.70;51.40;;;;;;5121579;27;20016;-45
2022/06/09 01:56:35;;;;;;;4.45;1.20;;;22.70;51.40;;;;;;5121222;28;20015;-48
2022/06/09 01:59:18;;;;;;;4.40;1.30;;;22.70;51.40;;;;;;5120932;28;20015;-47
2022/06/09 02:01:55;;;;;;;5.68;1.48;;;22.70;51.30;;;;;;5120846;28;20031;-50
2022/06/09 02:04:57;;;;;;;5.97;1.50;;;22.60;51.30;;;;;;5102661;28;20012;-51
2022/06/09 02:07:23;;;;;;;5.85;1.58;;;22.70;51.40;;;;;;5116889;28;20032;-45
2022/06/09 02:09:49;;;;;;;6.38;1.70;;;22.70;51.40;;;;;;5084207;28;20570;-51
2022/06/09 02:12:17;;;;;;;4.95;1.67;;;22.70;51.20;;;;;;5117353;28;20028;-47
2022/06/09 02:14:50;;;;;;;6.25;1.70;;;22.70;51.30;;;;;;5117376;28;20094;-44
2022/06/09 02:17:16;;;;;;;5.80;1.48;;;22.70;51.30;;;;;;5100182;28;20011;-49
2022/06/09 02:19:42;;;;;;;6.53;1.48;;;22.70;51.30;;;;;;5118932;28;20023;-46
2022/06/09 02:22:09;;;;;;;7.95;1.90;;;22.70;51.30;;;;;;5117904;28;20485;-48
2022/06/09 02:24:34;;;;;;;4.50;1.40;;;22.60;51.30;;;;;;5119487;28;20039;-47
2022/06/09 02:27:01;;;;;;;5.65;1.73;;;22.60;51.30;;;;;;5122611;28;20007;-49
2022/06/09 02:29:26;;;;;;;6.28;1.58;;;22.70;51.40;;;;;;5122645;28;20030;-47
2022/06/09 02:31:53;;;;;;;5.53;2.03;;;22.60;51.30;;;;;;5122275;28;20067;-50
2022/06/09 02:34:19;;;;;;;5.93;1.52;;;22.60;51.30;;;;;;5121615;28;20099;-46
2022/06/09 02:36:45;;;;;;;8.25;1.90;;;22.60;51.40;;;;;;5122878;28;20000;-51
2022/06/09 02:39:11;;;;;;;4.65;1.40;;;22.60;51.40;;;;;;5122298;28;20034;-48
2022/06/09 02:41:37;;;;;;;5.18;1.50;;;22.60;51.30;;;;;;5121921;28;20020;-45
2022/06/09 02:44:03;;;;;;;9.32;2.03;;;22.60;51.20;;;;;;5122577;28;20018;-46
2022/06/09 02:46:31;;;;;;;5.82;1.60;;;22.60;51.20;;;;;;5122933;28;20019;-45
2022/06/09 02:48:57;;;;;;;4.82;1.45;;;22.60;51.30;;;;;;5123094;28;20012;-50
2022/06/09 02:51:32;;;;;;;5.47;1.58;;;22.60;51.30;;;;;;5123074;28;20065;-45
2022/06/09 02:54:00;;;;;;;8.38;2.22;;;22.60;51.40;;;;;;5124105;28;20008;-51
2022/06/09 02:56:26;;;;;;;6.85;1.83;;;22.60;51.30;;;;;;5122158;28;20008;-46
2022/06/09 02:58:52;;;;;;;5.20;1.40;;;22.60;51.20;;;;;;5122301;28;20054;-51
2022/06/09 03:01:18;;;;;;;4.97;1.52;;;22.60;51.30;;;;;;5122688;28;20016;-44
2022/06/09 03:03:44;;;;;;;4.95;1.48;;;22.60;51.20;;;;;;5122912;28;20012;-48
2022/06/09 03:06:10;;;;;;;5.82;2.13;;;22.60;51.40;;;;;;5122000;28;20435;-49
2022/06/09 03:08:36;;;;;;;5.38;1.77;;;22.60;51.40;;;;;;5122496;28;20027;-47
2022/06/09 03:11:02;;;;;;;5.75;1.60;;;22.60;51.40;;;;;;5122955;28;20107;-50
2022/06/09 03:13:28;;;;;;;8.75;2.00;;;22.60;51.40;;;;;;5123440;28;20135;-49
2022/06/09 03:15:54;;;;;;;5.30;1.63;;;22.60;51.40;;;;;;5122916;28;20443;-46
2022/06/09 03:18:20;;;;;;;5.95;1.52;;;22.60;51.40;;;;;;5122827;28;20016;-50
2022/06/09 03:20:46;;;;;;;8.90;1.73;;;22.60;51.40;;;;;;5121170;28;20077;-42
2022/06/09 03:23:12;;;;;;;5.22;1.50;;;22.60;51.40;;;;;;5120902;28;20036;-48
2022/06/09 03:25:39;;;;;;;6.03;2.05;;;22.50;51.30;;;;;;5122313;28;20023;-46
2022/06/09 03:28:05;;;;;;;6.55;1.45;;;22.60;51.40;;;;;;5122197;28;20012;-48
2022/06/09 03:30:32;;;;;;;5.57;1.40;;;22.60;51.20;;;;;;5121741;28;20016;-45
2022/06/09 03:32:59;;;;;;;4.53;1.52;;;22.60;51.30;;;;;;5122653;28;20015;-46
2022/06/09 03:35:25;;;;;;;7.07;1.85;;;22.60;51.40;;;;;;5119508;28;20012;-46
2022/06/09 03:37:51;;;;;;;5.05;1.60;;;22.60;51.40;;;;;;5120857;28;20019;-50
2022/06/09 03:40:18;;;;;;;4.43;1.40;;;22.50;51.20;;;;;;5119551;28;20046;-48
2022/06/09 03:42:44;;;;;;;6.78;1.75;;;22.60;51.20;;;;;;5118768;28;20004;-48
2022/06/09 03:45:10;;;;;;;6.30;1.85;;;22.60;51.20;;;;;;5120565;28;20489;-50
2022/06/09 03:47:36;;;;;;;6.20;1.63;;;22.60;51.20;;;;;;5120327;28;20077;-42
2022/06/09 03:50:02;;;;;;;6.85;1.80;;;22.60;51.20;;;;;;5119565;28;20020;-49
2022/06/09 03:52:28;;;;;;;6.45;1.77;;;22.50;51.10;;;;;;5118447;28;20027;-50
2022/06/09 03:54:57;;;;;;;6.57;1.98;;;22.60;51.10;;;;;;5122062;28;20018;-46
2022/06/09 03:57:23;;;;;;;5.15;1.58;;;22.60;51.10;;;;;;5121719;28;20458;-47
2022/06/09 03:59:48;;;;;;;5.45;1.75;;;22.60;51.00;;;;;;5122055;28;20072;-48
2022/06/09 04:02:14;;;;;;;7.20;1.90;;;22.60;51.00;;;;;;5120328;28;20020;-49
2022/06/09 04:04:40;;;;;;;5.32;1.70;;;22.60;51.00;;;;;;5119844;28;20028;-44
2022/06/09 04:07:07;;;;;;;7.20;2.05;;;22.60;50.90;;;;;;5120207;28;20051;-52
2022/06/09 04:09:33;;;;;;;5.60;1.73;;;22.60;50.90;;;;;;5119522;28;20061;-46
2022/06/09 04:11:59;;;;;;;6.65;1.75;;;22.60;50.80;;;;;;5118986;28;20031;-49
2022/06/09 04:14:25;;;;;;;6.85;2.00;;;22.70;50.70;;;;;;5117772;28;20056;-50
2022/06/09 04:16:55;;;;;;;7.57;2.00;;;22.70;50.50;;;;;;5117279;28;20019;-50
2022/06/09 04:19:22;;;;;;;5.97;1.90;;;22.80;50.30;;;;;;5116537;28;20575;-49
2022/06/09 04:21:47;;;;;;;6.65;1.70;;;22.90;50.20;;;;;;5117451;28;20020;-50
2022/06/09 04:24:13;;;;;;;6.97;1.92;;;22.90;50.00;;;;;;5117110;28;20447;-48
2022/06/09 04:26:39;;;;;;;6.10;1.92;;;23.00;49.80;;;;;;5115550;28;20028;-47
2022/06/09 04:29:06;;;;;;;6.60;1.60;;;23.00;49.60;;;;;;5116655;28;20012;-49
2022/06/09 04:31:32;;;;;;;4.78;1.50;;;23.10;49.50;;;;;;5116087;28;20028;-42
2022/06/09 04:33:58;;;;;;;4.57;1.50;;;23.10;49.40;;;;;;5116750;28;20020;-42
2022/06/09 04:36:23;;;;;;;7.30;2.22;;;23.20;49.30;;;;;;5115822;28;20484;-42
2022/06/09 04:38:49;;;;;;;5.30;1.50;;;23.20;49.40;;;;;;5118980;28;20024;-43
2022/06/09 04:41:16;;;;;;;6.10;1.80;;;23.20;49.40;;;;;;5120227;28;20015;-44
2022/06/09 04:43:44;;;;;;;5.53;1.50;;;23.20;49.50;;;;;;5120622;28;20020;-42
2022/06/09 04:46:10;;;;;;;5.18;1.42;;;23.20;49.40;;;;;;5101790;28;20024;-43
2022/06/09 04:48:36;;;;;;;7.15;2.08;;;23.10;49.80;;;;;;5118614;28;20088;-42
2022/06/09 04:51:06;;;;;;;5.65;1.65;;;23.10;49.30;;;;;;5118699;28;20131;-49
2022/06/09 04:53:33;;;;;;;6.40;1.75;;;23.10;49.20;;;;;;5117784;28;20386;-44
2022/06/09 04:55:59;;;;;;;7.43;1.80;;;23.10;49.20;;;;;;5116838;28;20024;-43
2022/06/09 04:58:26;;;;;;;7.45;1.95;;;23.10;49.30;;;;;;5117768;28;20015;-46
2022/06/09 05:00:52;;;;;;;6.72;1.70;;;23.10;49.40;;;;;;5116962;28;20463;-44
2022/06/09 05:03:19;;;;;;;6.55;1.60;;;23.00;49.40;;;;;;5117324;28;20034;-49
2022/06/09 05:05:45;;;;;;;6.15;1.60;;;23.00;49.50;;;;;;5102209;28;20014;-48
2022/06/09 05:08:14;;;;;;;5.32;1.65;;;23.00;49.50;;;;;;5118154;28;20035;-48
2022/06/09 05:10:41;;;;;;;8.93;1.83;;;23.00;49.60;;;;;;5118625;28;20033;-48
2022/06/09 05:13:08;;;;;;;6.18;1.85;;;22.90;49.90;;;;;;5119057;28;20004;-46
2022/06/09 05:15:35;;;;;;;5.97;1.80;;;22.90;50.00;;;;;;5117303;28;20020;-48
2022/06/09 05:18:02;;;;;;;8.38;2.03;;;22.90;49.70;;;;;;5117723;28;20007;-46
2022/06/09 05:20:27;;;;;;;8.48;1.77;;;22.90;49.70;;;;;;5117128;28;20019;-47
2022/06/09 05:22:54;;;;;;;7.07;2.55;;;22.90;49.70;;;;;;5119576;28;20493;-48
2022/06/09 05:25:20;;;;;;;7.55;1.92;;;23.00;49.50;;;;;;5120566;28;20085;-47
2022/06/09 05:27:46;;;;;;;8.02;1.85;;;22.90;49.40;;;;;;5118945;28;20020;-46
2022/06/09 05:30:13;;;;;;;4.90;1.40;;;23.10;49.30;;;;;;5119538;28;20086;-45
2022/06/09 05:32:40;;;;;;;6.25;1.90;;;23.10;49.20;;;;;;5120181;28;20389;-45
2022/06/09 05:35:06;;;;;;;6.25;1.80;;;23.20;49.10;;;;;;5119230;28;20083;-43
2022/06/09 05:45:47;;;;;;;6.63;1.63;;;23.50;48.40;;;;;;5118363;28;20022;-45
2022/06/09 05:48:13;;;;;;;7.25;1.80;;;23.50;48.30;;;;;;5099928;28;20016;-43
2022/06/09 05:50:38;;;;;;;4.35;1.42;;;23.40;48.50;;;;;;5116790;28;20036;-48
2022/06/09 05:53:04;;;;;;;5.97;1.90;;;23.50;48.40;;;;;;5116880;28;20371;-43
2022/06/09 05:55:30;;;;;;;5.20;1.70;;;23.50;48.30;;;;;;5119717;28;20047;-45
2022/06/09 05:57:55;;;;;;;5.75;1.60;;;23.50;48.20;;;;;;5116379;28;20031;-46
2022/06/09 06:00:21;;;;;;;7.20;1.67;;;23.60;48.30;;;;;;5116528;28;20098;-46
2022/06/09 06:02:48;;;;;;;6.13;1.70;;;23.60;48.10;;;;;;5116334;28;20128;-45
2022/06/09 06:08:03;;;;;;;5.05;1.60;;;23.70;47.70;;;;;;5097567;28;20028;-48
2022/06/09 06:10:29;;;;;;;6.13;1.52;;;23.80;47.60;;;;;;5117273;28;20106;-42
2022/06/09 06:12:55;;;;;;;5.45;1.75;;;23.90;47.70;;;;;;5116792;28;20097;-44
2022/06/09 06:15:23;;;;;;;6.20;1.63;;;24.00;47.30;;;;;;5112936;28;20024;-43
2022/06/09 06:17:48;;;;;;;5.38;1.63;;;24.20;47.20;;;;;;5096794;28;20442;-44
2022/06/09 06:20:14;;;;;;;6.03;1.50;;;24.50;46.50;;;;;;5113057;28;20091;-43
2022/06/09 06:22:40;;;;;;;4.53;1.40;;;24.70;45.90;;;;;;5112911;27;20607;-41
2022/06/09 06:25:06;;;;;;;6.60;2.05;;;24.70;45.70;;;;;;5096789;28;20502;-41
2022/06/09 06:27:32;;;;;;;12.43;2.92;;;24.70;46.40;;;;;;5113280;28;20014;-40
2022/06/09 06:29:58;;;;;;;20.50;2.63;;;24.60;47.50;;;;;;5115429;28;20446;-43
2022/06/09 06:32:24;;;;;;;13.60;2.35;;;24.40;48.30;;;;;;5115754;28;20027;-43
2022/06/09 06:34:50;;;;;;;21.38;2.95;;;24.50;48.50;;;;;;5113694;28;20097;-44
2022/06/09 06:37:16;;;;;;;15.52;2.50;;;24.50;47.60;;;;;;5115371;28;20019;-41
2022/06/09 06:39:41;;;;;;;21.75;3.13;;;24.60;47.60;;;;;;5115768;28;20023;-40
2022/06/09 06:42:08;;;;;;;16.25;2.78;;;24.60;48.30;;;;;;5115473;28;20032;-43
2022/06/09 06:44:33;;;;;;;15.43;2.42;;;24.40;48.40;;;;;;5115641;28;20027;-42
2022/06/09 06:46:59;;;;;;;13.98;2.60;;;24.30;47.70;;;;;;5115296;28;20020;-43
2022/06/09 06:49:25;;;;;;;14.50;2.75;;;24.10;48.10;;;;;;5114902;28;20478;-43
2022/06/09 06:51:51;;;;;;;13.20;2.30;;;23.90;48.30;;;;;;5114959;28;20038;-41
2022/06/09 06:54:17;;;;;;;12.00;2.55;;;24.00;48.40;;;;;;5115258;28;20075;-41
2022/06/09 06:56:43;;;;;;;10.43;2.05;;;23.90;48.60;;;;;;5113270;28;20498;-42
2022/06/09 06:59:09;;;;;;;7.82;1.90;;;23.90;48.40;;;;;;5096675;28;20012;-41
2022/06/09 07:01:37;;;;;;;8.88;2.00;;;24.00;48.60;;;;;;5114463;28;20471;-42
2022/06/09 07:04:05;;;;;;;8.40;2.10;;;24.00;48.20;;;;;;5096976;28;20016;-46
2022/06/09 07:06:31;;;;;;;8.25;1.83;;;24.00;48.30;;;;;;5114348;28;20027;-41
2022/06/09 07:08:57;;;;;;;10.25;1.67;;;23.90;48.20;;;;;;5113458;28;20025;-42
2022/06/09 07:11:23;;;;;;;11.38;2.17;;;23.90;48.40;;;;;;5114943;28;20557;-42
2022/06/09 07:13:49;;;;;;;10.00;2.40;;;23.90;48.30;;;;;;5114721;28;20072;-41
2022/06/09 07:16:15;;;;;;;11.88;2.13;;;23.90;48.40;;;;;;5114655;28;20016;-41
2022/06/09 07:18:43;;;;;;;9.43;2.33;;;23.80;48.30;;;;;;5112724;28;20012;-41
2022/06/09 07:21:09;;;;;;;12.93;2.25;;;23.50;49.10;;;;;;5114309;28;20016;-42
2022/06/09 07:23:35;;;;;;;16.73;2.58;;;23.60;48.90;;;;;;5112895;28;20039;-42
2022/06/09 07:26:01;;;;;;;10.27;2.38;;;23.70;49.10;;;;;;5113959;28;20528;-42
2022/06/09 07:28:27;;;;;;;12.13;2.28;;;23.70;49.00;;;;;;5113737;28;20020;-43
2022/06/09 07:30:59;;;;;;;13.05;2.53;;;23.70;48.70;;;;;;5114458;28;20108;-41
2022/06/09 07:33:30;;;;;;;9.65;1.67;;;23.80;48.40;;;;;;5114670;28;20428;-43
2022/06/09 07:35:56;;;;;;;9.50;1.60;;;23.90;48.20;;;;;;5115354;28;20091;-43
2022/06/09 07:38:22;;;;;;;13.43;2.00;;;24.00;48.10;;;;;;5114406;28;20525;-43
2022/06/09 07:40:51;;;;;;;9.95;1.80;;;24.00;48.00;;;;;;5113142;28;20038;-45
2022/06/09 07:43:19;;;;;;;11.00;2.20;;;24.00;48.10;;;;;;5114686;28;20018;-44
2022/06/09 07:45:44;;;;;;;12.95;2.30;;;24.10;48.20;;;;;;5114636;28;20016;-45
2022/06/09 07:48:11;;;;;;;9.80;2.28;;;24.00;48.00;;;;;;5096428;28;20016;-45
2022/06/09 07:50:37;;;;;;;13.40;2.15;;;24.10;48.10;;;;;;5112333;28;20542;-45
2022/06/09 07:53:03;;;;;;;15.15;2.00;;;24.00;48.20;;;;;;5112840;28;20046;-41
2022/06/09 07:55:28;;;;;;;22.85;2.53;;;23.80;48.50;;;;;;5114154;28;20015;-44
2022/06/09 07:57:54;;;;;;;17.42;3.25;;;23.60;49.00;;;;;;5112309;28;20031;-44
2022/06/09 08:00:21;;;;;;;22.92;2.80;;;23.40;49.60;;;;;;5114158;28;20013;-42
2022/06/09 08:02:47;;;;;;;17.20;2.60;;;23.10;50.90;;;;;;5113567;28;20028;-46
2022/06/09 08:05:14;;;;;;;21.20;2.58;;;22.80;51.40;;;;;;5113600;28;20046;-43
2022/06/09 08:07:40;;;;;;;12.73;2.20;;;22.70;52.30;;;;;;5112071;28;20073;-45
2022/06/09 08:10:07;;;;;;;13.40;2.10;;;22.60;52.80;;;;;;5113074;28;20024;-45
2022/06/09 08:12:33;;;;;;;20.38;2.58;;;22.80;52.10;;;;;;5113605;28;20720;-43
2022/06/09 08:14:58;;;;;;;14.25;2.53;;;23.00;52.00;;;;;;5112369;28;20125;-45
2022/06/09 08:17:25;;;;;;;25.58;2.78;;;22.90;52.30;;;;;;5112067;28;20019;-41
2022/06/09 08:19:51;;;;;;;35.00;3.47;;;22.80;53.30;;;;;;5111326;28;20068;-42
2022/06/09 08:22:18;;;;;;;26.30;3.17;;;22.50;54.70;;;;;;5111233;28;20016;-45
2022/06/09 08:24:44;;;;;;;28.73;3.63;;;22.60;54.40;;;;;;5111593;28;20092;-41
2022/06/09 08:27:10;;;;;;;24.98;3.20;;;22.50;54.80;;;;;;5111671;28;20008;-42
2022/06/09 08:29:36;;;;;;;24.13;3.22;;;22.50;55.50;;;;;;5112183;28;20030;-41
2022/06/09 08:32:03;;;;;;;12.65;2.38;;;22.60;54.80;;;;;;5111229;28;20030;-46
2022/06/09 08:34:28;;;;;;;22.40;3.22;;;22.60;54.60;;;;;;5112303;28;20107;-41
2022/06/09 08:36:54;;;;;;;17.23;2.63;;;22.70;54.70;;;;;;5113330;28;20046;-41
2022/06/09 08:39:20;;;;;;;16.73;2.78;;;22.70;54.20;;;;;;5115447;28;20035;-41
2022/06/09 08:41:55;;;;;;;16.23;2.75;;;22.60;54.20;;;;;;5116269;28;20022;-42
2022/06/09 08:44:29;;;;;;;15.85;2.72;;;22.60;54.60;;;;;;5117249;28;20094;-42
2022/06/09 08:47:03;;;;;;;10.52;2.35;;;22.70;54.10;;;;;;5099367;28;20016;-41
2022/06/09 08:49:47;;;;;;;12.30;2.20;;;22.50;54.20;;;;;;5098014;28;20091;-42
2022/06/09 08:52:29;;;;;;;14.25;2.08;;;22.40;54.50;;;;;;5114839;28;20517;-43
2022/06/09 08:54:55;;;;;;;18.73;2.67;;;22.40;55.10;;;;;;5099879;28;20012;-40
2022/06/09 08:57:25;;;;;;;12.18;2.50;;;22.40;54.70;;;;;;5097616;28;20008;-42
2022/06/09 08:59:55;;;;;;;13.02;2.33;;;22.40;54.80;;;;;;5114993;28;20016;-41
2022/06/09 09:02:25;;;;;;;15.48;2.05;;;22.50;54.20;;;;;;5114958;28;20059;-40
2022/06/09 09:04:59;;;;;;;15.35;2.10;;;22.90;54.30;;;;;;5114808;28;20020;-41
2022/06/09 09:07:30;;;;;;;23.08;2.85;;;23.10;53.70;;;;;;5098934;28;20124;-41
2022/06/09 09:10:25;;;;;;;27.13;3.13;;;23.20;53.10;;;;;;5099065;28;20399;-41
2022/06/09 09:13:09;;;;;;;18.08;2.35;;;23.10;52.60;;;;;;5102118;28;20060;-41
2022/06/09 09:15:47;;;;;;;21.10;2.65;;;23.00;52.10;;;;;;5116611;28;20016;-41
2022/06/09 09:18:24;;;;;;;19.63;2.03;;;22.60;52.90;;;;;;5116835;28;20008;-42
2022/06/09 09:20:53;;;;;;;16.98;2.33;;;22.60;53.40;;;;;;5117924;28;20020;-47
2022/06/09 09:23:21;;;;;;;14.13;2.22;;;22.90;52.70;;;;;;5099227;28;20501;-42
2022/06/09 09:25:57;;;;;;;27.50;2.78;;;23.20;51.90;;;;;;5117527;28;20024;-41
2022/06/09 09:28:32;;;;;;;13.77;2.15;;;23.50;51.20;;;;;;5116676;28;20016;-41
2022/06/09 09:31:15;;;;;;;15.18;2.35;;;23.60;50.70;;;;;;5117623;28;20027;-46
2022/06/09 09:33:41;;;;;;;15.15;1.90;;;23.80;50.30;;;;;;5118586;28;20016;-42
2022/06/09 09:36:19;;;;;;;14.63;2.10;;;23.90;50.00;;;;;;5117381;28;20076;-42
2022/06/09 09:38:54;;;;;;;13.90;1.77;;;24.00;49.90;;;;;;5083392;28;20015;-42
2022/06/09 09:41:34;;;;;;;17.63;2.53;;;24.20;49.40;;;;;;5116043;28;20038;-45
2022/06/09 09:44:12;;;;;;;14.18;2.30;;;24.40;48.70;;;;;;5116330;28;20056;-41
2022/06/09 09:46:39;;;;;;;14.90;2.35;;;24.60;48.30;;;;;;5117355;28;20016;-43
2022/06/09 09:49:15;;;;;;;17.77;2.13;;;24.70;48.10;;;;;;5116721;28;20091;-44
2022/06/09 09:51:41;;;;;;;14.02;2.00;;;24.80;47.50;;;;;;5117341;28;20134;-43
2022/06/09 09:54:31;;;;;;;10.02;1.55;;;24.90;47.20;;;;;;5116074;28;20131;-47
2022/06/09 09:57:17;;;;;;;13.65;1.80;;;25.10;46.80;;;;;;5107710;28;20035;-43
2022/06/09 09:59:51;;;;;;;14.32;1.90;;;25.20;46.40;;;;;;5117945;28;20106;-44
2022/06/09 10:08:40;;;;;;;13.23;1.92;;;25.00;46.60;;;;;;5053868;28;20025;-42
2022/06/09 10:14:02;;;;;;;13.73;1.98;;;23.50;49.60;;;;;;5039421;28;20032;-39
2022/06/09 10:16:29;;;;;;;12.10;1.63;;;23.10;51.00;;;;;;5053489;28;20108;-40
2022/06/09 10:18:55;;;;;;;9.63;2.17;;;23.20;50.60;;;;;;5053550;28;20480;-39
2022/06/09 10:21:21;;;;;;;12.65;1.98;;;23.40;50.20;;;;;;5053763;28;20503;-38
2022/06/09 10:23:59;;;;;;;14.38;2.53;;;23.40;50.10;;;;;;5054031;28;20124;-39
2022/06/09 10:26:36;;;;;;;12.77;1.90;;;23.10;51.10;;;;;;5054331;28;20047;-39
2022/06/09 10:29:06;;;;;;;12.52;2.03;;;23.20;51.20;;;;;;5053335;28;20037;-39
2022/06/09 10:31:40;;;;;;;12.68;1.90;;;23.20;51.70;;;;;;5054063;28;20025;-39
2022/06/09 10:34:18;;;;;;;8.73;2.25;;;23.30;52.40;;;;;;5053647;28;20024;-40
2022/06/09 10:37:07;;;;;;;13.95;2.00;;;23.40;51.40;;;;;;5055225;28;20100;-40
2022/06/09 10:39:46;;;;;;;10.23;2.20;;;23.60;51.80;;;;;;5055036;28;20055;-42
2022/06/09 10:42:18;;;;;;;11.40;2.27;;;23.70;51.40;;;;;;5077185;28;20031;-40
2022/06/09 10:44:46;;;;;;;9.75;1.77;;;23.80;51.20;;;;;;5117307;28;20261;-40
2022/06/09 10:55:58;;;;;;;8.15;1.70;;;24.00;50.90;;;;;;5101199;28;20050;-39
2022/06/09 10:58:29;;;;;;;9.60;2.00;;;24.10;50.80;;;;;;5115461;28;20024;-40
2022/06/09 11:00:56;;;;;;;9.30;1.40;;;24.10;50.60;;;;;;5114482;28;20014;-39
2022/06/09 11:03:26;;;;;;;9.30;2.20;;;24.20;50.60;;;;;;5114097;28;20529;-39
2022/06/09 11:06:25;;;;;;;8.35;1.92;;;24.30;50.40;;;;;;5097460;28;20019;-39
2022/06/09 11:09:00;;;;;;;7.80;1.50;;;24.40;50.20;;;;;;5115722;28;20072;-39
2022/06/09 11:11:49;;;;;;;5.68;1.58;;;24.50;49.90;;;;;;5115879;28;20511;-45
2022/06/09 11:14:24;;;;;;;7.90;2.03;;;24.50;49.90;;;;;;5114778;28;20334;-40
2022/06/09 11:17:02;;;;;;;5.50;1.70;;;24.50;49.80;;;;;;5115778;28;20022;-43
2022/06/09 11:19:40;;;;;;;7.35;1.67;;;24.50;49.80;;;;;;5115537;28;20031;-40
2022/06/09 11:22:12;;;;;;;6.93;1.58;;;24.50;50.00;;;;;;5115580;28;20019;-40
2022/06/09 11:25:07;;;;;;;11.52;1.80;;;24.50;49.90;;;;;;5114961;28;20055;-41
2022/06/09 11:27:41;;;;;;;8.70;1.70;;;24.50;49.80;;;;;;5114912;28;20015;-40
2022/06/09 11:30:32;;;;;;;6.60;1.77;;;24.50;49.80;;;;;;5114835;28;20080;-41
2022/06/09 11:33:01;;;;;;;8.18;1.77;;;24.50;49.70;;;;;;5115509;28;20027;-39
2022/06/09 11:35:38;;;;;;;7.63;1.98;;;24.50;49.70;;;;;;5115749;28;20028;-41
2022/06/09 11:38:38;;;;;;;10.68;1.60;;;24.40;49.90;;;;;;5113274;28;20012;-42
2022/06/09 11:41:29;;;;;;;5.72;1.20;;;24.40;49.80;;;;;;5075693;28;20035;-40
2022/06/09 11:44:12;;;;;;;5.50;1.35;;;24.50;49.50;;;;;;5117547;28;20040;-44
2022/06/09 11:46:39;;;;;;;8.52;2.00;;;24.40;49.40;;;;;;5100536;28;20015;-40
2022/06/09 11:49:10;;;;;;;8.10;1.75;;;24.50;49.40;;;;;;5116734;28;20141;-40
2022/06/09 11:51:35;;;;;;;6.78;1.30;;;24.50;49.30;;;;;;5082328;28;20020;-40
2022/06/09 11:54:04;;;;;;;6.82;1.70;;;24.50;49.20;;;;;;5114372;28;20019;-41
2022/06/09 11:56:45;;;;;;;5.95;1.63;;;24.50;49.00;;;;;;5115096;28;20016;-43
2022/06/09 11:59:35;;;;;;;5.80;1.55;;;24.50;48.90;;;;;;5116246;28;20095;-44
2022/06/09 12:02:17;;;;;;;7.10;1.50;;;24.50;48.70;;;;;;5115259;28;20038;-41
2022/06/09 12:04:43;;;;;;;5.38;1.58;;;24.50;48.80;;;;;;5117014;28;20016;-41
2022/06/09 12:07:25;;;;;;;9.05;1.60;;;24.50;48.60;;;;;;5116654;28;20044;-40
2022/06/09 12:10:29;;;;;;;5.60;1.48;;;24.50;48.50;;;;;;5116275;28;20490;-40
2022/06/09 12:13:05;;;;;;;7.05;1.70;;;24.50;48.50;;;;;;5033527;28;20104;-42
2022/06/09 12:15:32;;;;;;;6.60;1.88;;;24.50;48.30;;;;;;5021306;28;20045;-44
2022/06/09 12:18:12;;;;;;;8.43;2.03;;;24.50;48.20;;;;;;5021285;28;20456;-45
2022/06/09 12:20:58;;;;;;;4.47;1.58;;;24.50;48.30;;;;;;5020557;28;20029;-46
2022/06/09 12:23:31;;;;;;;8.00;2.28;;;24.50;48.30;;;;;;5022853;28;20596;-42
2022/06/09 12:26:27;;;;;;;7.63;1.80;;;24.50;48.20;;;;;;5021433;28;20072;-40
2022/06/09 12:28:53;;;;;;;7.63;1.90;;;24.40;48.10;;;;;;5016516;28;20045;-46
2022/06/09 12:31:31;;;;;;;9.02;1.90;;;24.40;47.90;;;;;;5037018;28;20040;-40
2022/06/09 12:34:11;;;;;;;8.32;2.17;;;24.40;47.80;;;;;;5036757;28;20101;-39
2022/06/09 12:36:54;;;;;;;7.10;1.98;;;24.40;47.80;;;;;;5037174;28;20017;-40
2022/06/09 12:39:21;;;;;;;8.27;2.20;;;24.40;47.70;;;;;;5036906;28;20034;-43
2022/06/09 12:42:09;;;;;;;8.70;2.28;;;24.40;47.60;;;;;;5036717;28;20029;-40
2022/06/09 12:44:42;;;;;;;7.53;2.00;;;24.30;47.40;;;;;;5020253;28;20048;-41
2022/06/09 12:47:21;;;;;;;7.72;2.30;;;24.40;47.50;;;;;;5080314;28;20027;-43
2022/06/09 12:49:51;;;;;;;7.68;2.15;;;24.30;46.90;;;;;;5119488;28;20069;-41
2022/06/09 12:52:38;;;;;;;6.90;2.20;;;24.40;46.70;;;;;;5100731;28;20027;-40
2022/06/09 12:55:16;;;;;;;7.38;2.75;;;24.30;46.60;;;;;;5117862;28;20011;-41
2022/06/09 12:57:48;;;;;;;8.73;2.40;;;24.40;46.30;;;;;;5117715;28;20422;-40
2022/06/09 13:00:21;;;;;;;12.35;2.45;;;24.40;46.10;;;;;;5118767;28;20056;-40
2022/06/09 13:02:48;;;;;;;5.88;2.00;;;24.20;45.20;;;;;;5118404;28;20027;-40
2022/06/09 13:05:27;;;;;;;8.38;2.50;;;24.20;46.10;;;;;;5118727;28;20008;-41
2022/06/09 13:08:26;;;;;;;11.00;2.40;;;24.20;45.40;;;;;;5117689;28;20043;-41
2022/06/09 13:11:03;;;;;;;7.90;2.40;;;24.20;44.80;;;;;;5036221;28;20044;-40
2022/06/09 13:13:38;;;;;;;8.00;1.98;;;24.30;45.10;;;;;;5004657;28;20319;-42
2022/06/09 13:16:23;;;;;;;6.63;2.00;;;24.20;44.50;;;;;;5019794;28;20028;-40
2022/06/09 13:18:58;;;;;;;9.75;2.50;;;24.20;44.50;;;;;;5020141;28;20089;-40
2022/06/09 13:21:36;;;;;;;7.57;2.10;;;24.20;44.00;;;;;;5036591;28;20030;-40
2022/06/09 13:24:26;;;;;;;8.13;2.38;;;24.30;43.80;;;;;;5019205;28;20061;-44
2022/06/09 13:26:52;;;;;;;6.57;2.25;;;24.30;43.50;;;;;;5036243;28;20093;-42
2022/06/09 13:29:21;;;;;;;6.57;2.17;;;24.30;43.70;;;;;;5036506;28;20026;-44
2022/06/09 13:31:48;;;;;;;8.20;2.50;;;24.20;43.40;;;;;;5036416;28;20026;-40